Time;durP1;ratioP1;P1;durP2;ratioP2;P2;SDS_P1;SDS_P2;PMS_P1;PMS_P2;Temp;Humidity;BMP_temperature;BMP_pressure;BME280_temperature;BME280_humidity;BME280_pressure;Samples;Min_cycle;Max_cycle;Signal;HPM_P1;HPM_P2
2022/05/16 00:00:58;;;;;;;;;;;;;;;24.71;16.79;100046.94;5093945;28;20007;-74
2022/05/16 00:03:24;;;;;;;;;;;;;;;24.70;16.80;100055.47;5094049;28;20423;-74
2022/05/16 00:05:49;;;;;;;;;;;;;;;24.69;16.77;100045.63;5075885;28;20337;-73
2022/05/16 00:08:14;;;;;;;;;;;;;;;24.69;16.77;100057.38;5093728;28;19920;-75
2022/05/16 00:10:40;;;;;;;;;;;;;;;24.70;16.73;100052.72;5094014;28;20023;-75
2022/05/16 00:13:05;;;;;;;;;;;;;;;24.70;16.86;100061.72;5094010;28;20265;-74
2022/05/16 00:15:30;;;;;;;;;;;;;;;24.69;16.59;100049.16;5098673;28;19924;-76
2022/05/16 00:17:55;;;;;;;;;;;;;;;24.70;16.61;100058.19;5113993;28;19916;-73
2022/05/16 00:20:21;;;;;;;;;;;;;;;24.69;16.97;100059.28;5113928;28;19923;-74
2022/05/16 00:22:46;;;;;;;;;;;;;;;24.70;16.64;100052.72;5114081;28;19962;-75
2022/05/16 00:25:12;;;;;;;;;;;;;;;24.70;16.85;100052.72;5115181;28;19919;-75
2022/05/16 00:27:37;;;;;;;;;;;;;;;24.69;17.02;100048.38;5099596;28;19916;-76
2022/05/16 00:30:06;;;;;;;;;;;;;;;24.69;16.77;100051.91;5118347;28;19916;-74
2022/05/16 00:32:32;;;;;;;;;;;;;;;24.70;16.85;100052.72;5118710;28;19938;-74
2022/05/16 00:34:57;;;;;;;;;;;;;;;24.69;16.76;100051.91;5118046;28;20378;-74
2022/05/16 00:37:22;;;;;;;;;;;;;;;24.69;16.86;100057.38;5118193;28;20399;-75
2022/05/16 00:39:47;;;;;;;;;;;;;;;24.69;16.93;100049.16;5118039;28;20278;-75
2022/05/16 00:42:13;;;;;;;;;;;;;;;24.68;16.74;100053.03;5117855;28;20358;-74
2022/05/16 00:44:38;;;;;;;;;;;;;;;24.68;16.97;100052.19;5117800;28;19920;-75
2022/05/16 00:47:03;;;;;;;;;;;;;;;24.69;16.84;100053.81;5117907;28;19915;-74
2022/05/16 00:49:30;;;;;;;;;;;;;;;24.68;17.00;100058.47;5117906;28;19938;-75
2022/05/16 00:52:05;;;;;;;;;;;;;;;24.69;17.11;100057.38;5117903;28;19927;-74
2022/05/16 00:55:09;;;;;;;;;;;;;;;24.69;17.13;100062.03;5117791;28;20003;-75
2022/05/16 00:57:38;;;;;;;;;;;;;;;24.68;16.92;100065.84;5054871;28;19928;-73
2022/05/16 01:00:04;;;;;;;;;;;;;;;24.69;16.97;100062.03;5054688;28;19940;-74
2022/05/16 01:05:13;;;;;;;;;;;;;;;24.68;16.89;100065.84;5040608;28;19995;-77
2022/05/16 01:07:39;;;;;;;;;;;;;;;24.67;17.00;100065.03;5054555;28;19921;-74
2022/05/16 01:10:05;;;;;;;;;;;;;;;24.69;16.98;100064.75;5054599;28;19983;-75
2022/05/16 01:12:31;;;;;;;;;;;;;;;24.67;16.98;100075.97;5054512;28;19922;-75
2022/05/16 01:14:56;;;;;;;;;;;;;;;24.68;17.17;100071.31;5054485;28;20359;-75
2022/05/16 01:17:21;;;;;;;;;;;;;;;24.66;17.14;100068.06;5035374;28;19917;-75
2022/05/16 01:19:47;;;;;;;;;;;;;;;24.67;16.87;100070.50;5034570;28;19924;-75
2022/05/16 01:22:26;;;;;;;;;;;;;;;24.68;16.99;100071.31;5034487;28;20300;-76
2022/05/16 01:24:52;;;;;;;;;;;;;;;24.67;16.88;100077.91;5018081;28;19952;-73
2022/05/16 01:27:17;;;;;;;;;;;;;;;24.68;16.94;100080.34;5038909;28;20055;-75
2022/05/16 01:29:42;;;;;;;;;;;;;;;24.67;17.26;100080.63;5096760;28;20363;-75
2022/05/16 01:32:09;;;;;;;;;;;;;;;24.68;17.26;100068.56;5096868;28;20374;-74
2022/05/16 01:34:34;;;;;;;;;;;;;;;24.68;17.18;100065.84;5096606;28;19939;-74
2022/05/16 01:36:59;;;;;;;;;;;;;;;24.68;17.19;100074.88;5095270;28;20362;-74
2022/05/16 01:39:25;;;;;;;;;;;;;;;24.68;17.09;100076.78;5096577;28;19916;-75
2022/05/16 01:41:50;;;;;;;;;;;;;;;24.67;16.92;100080.63;5096365;28;20274;-75
2022/05/16 01:44:15;;;;;;;;;;;;;;;24.68;17.33;100071.31;5096725;28;19970;-74
2022/05/16 01:46:40;;;;;;;;;;;;;;;24.68;16.93;100077.59;5096523;28;20371;-74
2022/05/16 01:49:06;;;;;;;;;;;;;;;24.68;17.19;100077.59;5096449;28;19970;-76
2022/05/16 01:51:31;;;;;;;;;;;;;;;24.63;17.05;100068.63;5095793;28;19950;-73
2022/05/16 01:53:57;;;;;;;;;;;;;;;24.67;17.13;100083.34;5096226;28;20030;-76
2022/05/16 01:56:22;;;;;;;;;;;;;;;24.67;17.24;100081.44;5096264;28;20278;-73
2022/05/16 01:58:48;;;;;;;;;;;;;;;24.68;17.25;100071.31;5096236;28;20355;-75
2022/05/16 02:01:14;;;;;;;;;;;;;;;24.69;17.03;100075.69;5095994;28;19923;-76
2022/05/16 02:03:40;;;;;;;;;;;;;;;24.69;17.29;100078.41;5095757;28;19923;-73
2022/05/16 02:06:05;;;;;;;;;;;;;;;24.68;17.10;100077.59;5096077;28;19916;-75
2022/05/16 02:08:30;;;;;;;;;;;;;;;24.69;17.23;100089.34;5095727;28;20366;-74
2022/05/16 02:10:55;;;;;;;;;;;;;;;24.68;17.29;100084.97;5095943;28;19916;-75
2022/05/16 02:13:21;;;;;;;;;;;;;;;24.67;17.31;100081.44;5095952;28;20281;-74
2022/05/16 02:15:46;;;;;;;;;;;;;;;24.68;17.23;100085.81;5095413;28;19962;-74
2022/05/16 02:18:11;;;;;;;;;;;;;;;24.67;16.96;100086.09;5095778;28;19916;-74
2022/05/16 02:20:37;;;;;;;;;;;;;;;24.68;17.22;100087.72;5095786;28;20445;-73
2022/05/16 02:25:49;;;;;;;;;;;;;;;24.67;17.14;100097.03;5101011;28;19927;-75
2022/05/16 02:28:16;;;;;;;;;;;;;;;24.67;17.29;100097.03;5115842;28;19919;-75
2022/05/16 02:30:41;;;;;;;;;;;;;;;24.66;17.16;100092.66;5115662;28;19960;-73
2022/05/16 02:33:07;;;;;;;;;;;;;;;24.67;17.29;100097.03;5115953;28;19920;-74
2022/05/16 02:35:32;;;;;;;;;;;;;;;24.68;17.20;100104.94;5115944;28;19916;-74
2022/05/16 02:37:58;;;;;;;;;;;;;;;24.68;17.19;100098.63;5115937;28;19922;-75
2022/05/16 02:40:25;;;;;;;;;;;;;;;24.68;17.18;100104.09;5116345;28;19915;-74
2022/05/16 02:42:50;;;;;;;;;;;;;;;24.68;16.99;100106.84;5115630;28;19977;-74
2022/05/16 02:45:15;;;;;;;;;;;;;;;24.67;17.12;100105.22;5115741;28;20346;-75
2022/05/16 02:47:41;;;;;;;;;;;;;;;24.66;17.24;100100.84;5115032;28;19939;-73
2022/05/16 02:50:09;;;;;;;;;;;;;;;24.67;17.09;100099.75;5115562;28;20373;-75
2022/05/16 02:52:34;;;;;;;;;;;;;;;24.66;17.34;100106.31;5096949;28;19950;-74
2022/05/16 02:55:03;;;;;;;;;;;;;;;24.66;17.05;100111.78;5115503;28;20350;-74
2022/05/16 02:57:28;;;;;;;;;;;;;;;24.67;17.04;100103.28;5115213;28;19916;-76
2022/05/16 02:59:54;;;;;;;;;;;;;;;24.66;17.11;100106.31;5115384;28;20018;-73
2022/05/16 03:02:19;;;;;;;;;;;;;;;24.66;17.26;100106.31;5114943;28;20381;-75
2022/05/16 03:04:45;;;;;;;;;;;;;;;24.65;17.26;100110.97;5115165;28;20018;-74
2022/05/16 03:07:10;;;;;;;;;;;;;;;24.66;17.11;100111.78;5114932;28;19916;-73
2022/05/16 03:09:35;;;;;;;;;;;;;;;24.65;17.24;100110.97;5115212;28;19923;-75
2022/05/16 03:12:01;;;;;;;;;;;;;;;24.65;17.08;100110.16;5115091;28;19920;-73
2022/05/16 03:14:26;;;;;;;;;;;;;;;24.65;17.16;100115.63;5115098;28;19968;-75
2022/05/16 03:16:51;;;;;;;;;;;;;;;24.65;17.23;100105.50;5102232;28;20325;-74
2022/05/16 03:19:17;;;;;;;;;;;;;;;24.65;17.00;100110.16;5094656;28;19926;-74
2022/05/16 03:21:42;;;;;;;;;;;;;;;24.66;17.10;100114.50;5094607;28;19916;-76
2022/05/16 03:24:10;;;;;;;;;;;;;;;24.67;17.13;100116.16;5094525;28;19923;-73
2022/05/16 03:26:36;;;;;;;;;;;;;;;24.66;17.01;100117.25;5094141;28;19924;-75
2022/05/16 03:29:02;;;;;;;;;;;;;;;24.68;17.11;100115.03;5094466;28;20332;-74
2022/05/16 03:31:27;;;;;;;;;;;;;;;24.68;17.09;100112.28;5094406;28;20338;-75
2022/05/16 03:33:52;;;;;;;;;;;;;;;24.69;17.20;100116.66;5094574;28;19916;-76
2022/05/16 03:36:17;;;;;;;;;;;;;;;24.72;17.19;100110.63;5094226;28;19916;-74
2022/05/16 03:41:27;;;;;;;;;;;;;;;24.80;17.18;100109.19;5094042;28;20250;-75
2022/05/16 03:43:52;;;;;;;;;;;;;;;24.85;17.14;100117.31;5094287;28;19916;-72
2022/05/16 03:46:17;;;;;;;;;;;;;;;24.90;17.27;100107.13;5094312;28;19970;-74
2022/05/16 03:48:43;;;;;;;;;;;;;;;24.95;17.19;100116.41;5094158;28;20271;-76
2022/05/16 03:51:08;;;;;;;;;;;;;;;25.00;17.22;100121.81;5093867;28;19960;-74
2022/05/16 03:53:36;;;;;;;;;;;;;;;25.07;16.91;100125.00;5094114;28;20010;-76
2022/05/16 03:56:02;;;;;;;;;;;;;;;25.14;16.77;100119.19;5094122;28;20340;-73
2022/05/16 03:58:27;;;;;;;;;;;;;;;25.18;16.81;100123.78;5093812;28;19954;-75
2022/05/16 04:00:52;;;;;;;;;;;;;;;25.22;16.72;100124.84;5093049;28;19922;-76
2022/05/16 04:03:18;;;;;;;;;;;;;;;25.25;16.66;100113.34;5075667;28;19917;-75
2022/05/16 04:05:43;;;;;;;;;;;;;;;25.24;16.62;100111.66;5094044;28;19938;-75
2022/05/16 04:08:08;;;;;;;;;;;;;;;25.29;16.85;100119.84;5093956;28;20277;-75
2022/05/16 04:10:33;;;;;;;;;;;;;;;25.32;16.50;100123.09;5094026;28;19916;-73
2022/05/16 04:12:59;;;;;;;;;;;;;;;25.34;16.53;100129.91;5094192;28;20014;-74
2022/05/16 04:15:25;;;;;;;;;;;;;;;25.37;16.70;100132.06;5094064;28;20297;-74
2022/05/16 04:17:50;;;;;;;;;;;;;;;25.32;16.70;100129.41;5112442;28;20397;-76
2022/05/16 04:20:16;;;;;;;;;;;;;;;25.39;16.47;100129.00;5114396;28;19916;-74
2022/05/16 04:22:41;;;;;;;;;;;;;;;25.42;16.51;100131.19;5114529;28;19919;-76
2022/05/16 04:25:07;;;;;;;;;;;;;;;25.41;16.31;100126.81;5114160;28;19916;-74
2022/05/16 04:27:32;;;;;;;;;;;;;;;25.46;16.24;100129.50;5113695;28;19920;-75
2022/05/16 04:29:58;;;;;;;;;;;;;;;25.50;16.44;100130.53;5114203;28;20037;-76
2022/05/16 04:32:23;;;;;;;;;;;;;;;25.51;16.59;100132.16;5113688;28;19916;-73
2022/05/16 04:34:48;;;;;;;;;;;;;;;25.55;16.28;100135.13;5114076;28;19916;-74
2022/05/16 04:37:13;;;;;;;;;;;;;;;25.52;16.37;100119.28;5113979;28;20370;-75
2022/05/16 04:39:39;;;;;;;;;;;;;;;25.58;16.53;100129.06;5113912;28;19915;-75
2022/05/16 04:44:48;;;;;;;;;;;;;;;25.59;16.48;100142.44;5098271;28;20396;-76
2022/05/16 04:47:13;;;;;;;;;;;;;;;25.62;16.38;100144.59;5113938;28;19916;-74
2022/05/16 04:49:40;;;;;;;;;;;;;;;25.61;16.26;100142.97;5113688;28;19938;-73
2022/05/16 04:52:05;;;;;;;;;;;;;;;25.66;16.53;100147.53;5113805;28;19935;-75
2022/05/16 04:54:31;;;;;;;;;;;;;;;25.65;16.45;100141.28;5114785;28;19915;-74
2022/05/16 04:56:56;;;;;;;;;;;;;;;25.68;16.64;100151.63;5113356;28;20374;-76
2022/05/16 04:59:21;;;;;;;;;;;;;;;25.63;16.55;100148.13;5113194;28;19916;-74
2022/05/16 05:01:47;;;;;;;;;;;;;;;25.67;16.50;100150.00;5113351;28;20358;-73
2022/05/16 05:04:12;;;;;;;;;;;;;;;25.68;16.20;100154.38;5113869;28;19916;-74
2022/05/16 05:06:39;;;;;;;;;;;;;;;25.74;16.36;100157.84;5113624;28;19992;-74
2022/05/16 05:09:04;;;;;;;;;;;;;;;25.73;16.25;100156.19;5113369;28;19916;-74
2022/05/16 05:14:32;;;;;;;;;;;;;;;25.74;16.12;100148.81;5117294;28;19954;-74
2022/05/16 05:16:57;;;;;;;;;;;;;;;25.73;16.30;100160.88;5107909;28;19916;-74
2022/05/16 05:19:22;;;;;;;;;;;;;;;25.80;16.45;100162.16;5096463;28;20007;-74
2022/05/16 05:21:48;;;;;;;;;;;;;;;25.73;16.40;100152.66;5096835;28;20062;-73
2022/05/16 05:24:13;;;;;;;;;;;;;;;25.80;16.83;100155.84;5096763;28;20404;-75
2022/05/16 05:26:39;;;;;;;;;;;;;;;25.78;16.69;100158.06;5096436;28;20385;-74
2022/05/16 05:29:04;;;;;;;;;;;;;;;25.80;17.13;100155.84;5096225;28;19916;-74
2022/05/16 05:31:30;;;;;;;;;;;;;;;25.85;16.60;100153.03;5096608;28;19920;-74
2022/05/16 05:33:55;;;;;;;;;;;;;;;25.84;16.68;100159.63;5096616;28;19920;-76
2022/05/16 05:36:20;;;;;;;;;;;;;;;25.75;16.89;100153.19;5096261;28;19927;-74
2022/05/16 05:38:51;;;;;;;;;;;;;;;25.78;17.08;100158.06;5096473;28;19923;-75
2022/05/16 05:41:16;;;;;;;;;;;;;;;25.81;17.05;100162.94;5096159;28;19916;-77
2022/05/16 05:43:41;;;;;;;;;;;;;;;25.83;16.99;100166.19;5096030;28;19916;-74
2022/05/16 05:46:07;;;;;;;;;;;;;;;25.80;17.00;100166.78;5096266;28;20122;-75
2022/05/16 05:48:32;;;;;;;;;;;;;;;25.80;16.87;100164.88;5095906;28;19917;-75
2022/05/16 05:50:57;;;;;;;;;;;;;;;25.87;16.85;100164.50;5095781;28;19931;-76
2022/05/16 05:53:22;;;;;;;;;;;;;;;25.89;16.92;100175.16;5095771;28;19923;-73
2022/05/16 05:55:48;;;;;;;;;;;;;;;25.84;16.81;100173.31;5095781;28;19920;-74
2022/05/16 05:58:14;;;;;;;;;;;;;;;25.81;16.88;100171.16;5095674;28;20386;-75
2022/05/16 06:00:39;;;;;;;;;;;;;;;25.84;16.73;100174.13;5095491;28;19943;-73
2022/05/16 06:03:04;;;;;;;;;;;;;;;25.92;16.67;100180.84;5095727;28;19982;-74
2022/05/16 06:05:30;;;;;;;;;;;;;;;26.04;16.69;100175.81;5095583;28;19916;-74
2022/05/16 06:07:55;;;;;;;;;;;;;;;26.07;16.54;100168.91;5095691;28;20312;-76
2022/05/16 06:10:20;;;;;;;;;;;;;;;26.09;16.41;100177.63;5095550;28;19923;-75
2022/05/16 06:12:45;;;;;;;;;;;;;;;25.97;16.58;100178.06;5095201;28;19928;-74
2022/05/16 06:15:11;;;;;;;;;;;;;;;26.02;16.46;100179.94;5095891;28;19942;-76
2022/05/16 06:17:36;;;;;;;;;;;;;;;25.99;16.76;100173.13;5095693;28;20382;-74
2022/05/16 06:20:03;;;;;;;;;;;;;;;25.98;16.43;100168.75;5096100;28;20366;-75
2022/05/16 06:22:34;;;;;;;;;;;;;;;26.09;16.31;100179.56;5095054;28;19916;-76
2022/05/16 06:27:43;;;;;;;;;;;;;;;26.14;16.50;100188.50;5095319;28;19927;-75
2022/05/16 06:30:11;;;;;;;;;;;;;;;26.12;16.34;100189.94;5095384;28;20279;-75
2022/05/16 06:32:36;;;;;;;;;;;;;;;26.13;16.24;100188.78;5095817;28;20358;-74
2022/05/16 06:35:01;;;;;;;;;;;;;;;26.15;16.31;100195.63;5095093;28;19939;-76
2022/05/16 06:37:26;;;;;;;;;;;;;;;26.14;16.23;100202.19;5095542;28;20355;-75
2022/05/16 06:39:52;;;;;;;;;;;;;;;26.16;16.11;100196.44;5095812;28;20018;-77
2022/05/16 06:42:17;;;;;;;;;;;;;;;26.30;16.20;100186.38;5095750;28;20313;-74
2022/05/16 06:44:44;;;;;;;;;;;;;;;26.35;16.02;100199.97;5095109;28;19917;-76
2022/05/16 06:47:10;;;;;;;;;;;;;;;26.33;16.00;100196.72;5095523;28;20282;-75
2022/05/16 06:49:35;;;;;;;;;;;;;;;26.28;16.29;100193.25;5095474;28;19916;-76
2022/05/16 06:52:00;;;;;;;;;;;;;;;26.23;16.39;100194.13;5095706;28;20336;-74
2022/05/16 06:54:25;;;;;;;;;;;;;;;26.30;15.96;100197.31;5095384;28;19920;-75
2022/05/16 06:56:51;;;;;;;;;;;;;;;26.29;16.03;100195.69;5095503;28;19920;-76
2022/05/16 06:59:18;;;;;;;;;;;;;;;26.28;16.07;100188.56;5095822;28;19923;-75
2022/05/16 07:01:44;;;;;;;;;;;;;;;26.28;16.15;100194.03;5094390;28;20281;-72
2022/05/16 07:04:09;;;;;;;;;;;;;;;26.34;15.93;100197.53;5095186;28;19916;-74
2022/05/16 07:06:34;;;;;;;;;;;;;;;26.29;16.08;100198.44;5095051;28;19928;-75
2022/05/16 07:09:00;;;;;;;;;;;;;;;26.20;16.04;100203.75;5095302;28;19920;-77
2022/05/16 07:11:25;;;;;;;;;;;;;;;26.26;16.20;100204.50;5095022;28;19947;-74
2022/05/16 07:13:50;;;;;;;;;;;;;;;26.19;15.97;100207.59;5094445;28;19926;-74
2022/05/16 07:16:16;;;;;;;;;;;;;;;26.12;16.19;100207.16;5095290;28;19916;-75
2022/05/16 07:18:41;;;;;;;;;;;;;;;25.93;16.39;100215.34;5115823;28;19923;-76
2022/05/16 07:21:07;;;;;;;;;;;;;;;26.13;16.10;100210.72;5115592;28;20378;-75
2022/05/16 07:23:32;;;;;;;;;;;;;;;26.15;16.30;100216.72;5115630;28;19916;-74
2022/05/16 07:28:41;;;;;;;;;;;;;;;26.48;15.57;100219.50;5116720;28;20305;-74
2022/05/16 07:31:07;;;;;;;;;;;;;;;26.39;15.77;100225.66;5115292;28;19916;-75
2022/05/16 07:33:32;;;;;;;;;;;;;;;26.22;15.79;100223.44;5114827;28;20279;-76
2022/05/16 07:35:57;;;;;;;;;;;;;;;26.39;15.73;100225.66;5115189;28;19922;-75
2022/05/16 07:38:23;;;;;;;;;;;;;;;26.39;15.56;100227.59;5115099;28;19916;-75
2022/05/16 07:40:48;;;;;;;;;;;;;;;26.56;15.76;100219.66;5114535;28;19915;-74
2022/05/16 07:43:14;;;;;;;;;;;;;;;26.61;15.60;100222.31;5115377;28;19916;-77
2022/05/16 07:45:39;;;;;;;;;;;;;;;26.45;15.99;100207.22;5097308;28;19922;-74
2022/05/16 07:48:04;;;;;;;;;;;;;;;26.84;15.57;100227.16;5115519;28;19919;-74
2022/05/16 07:50:30;;;;;;;;;;;;;;;26.87;15.75;100226.56;5116427;28;19961;-77
2022/05/16 07:52:58;;;;;;;;;;;;;;;26.85;15.73;100242.50;5115584;28;19984;-78
2022/05/16 07:55:23;;;;;;;;;;;;;;;26.76;16.11;100225.94;5115071;28;19992;-75
2022/05/16 07:57:49;;;;;;;;;;;;;;;26.73;15.98;100224.63;5115066;28;20380;-74
2022/05/16 08:00:14;;;;;;;;;;;;;;;26.51;16.07;100235.34;5115054;28;19919;-75
2022/05/16 08:02:39;;;;;;;;;;;;;;;26.44;15.63;100213.81;5115336;28;19922;-77
2022/05/16 08:05:06;;;;;;;;;;;;;;;26.85;15.13;100228.78;5114028;28;20332;-74
2022/05/16 08:07:31;;;;;;;;;;;;;;;26.94;15.12;100227.81;5114360;28;19916;-75
2022/05/16 08:12:40;;;;;;;;;;;;;;;26.63;15.11;100243.13;5114467;28;19938;-75
2022/05/16 08:15:05;;;;;;;;;;;;;;;26.91;15.02;100244.84;5113914;28;20361;-74
2022/05/16 08:17:31;;;;;;;;;;;;;;;27.06;14.69;100252.00;5104750;28;19916;-76
2022/05/16 08:19:56;;;;;;;;;;;;;;;27.04;14.80;100237.75;5093620;28;20370;-74
2022/05/16 08:22:26;;;;;;;;;;;;;;;26.98;14.77;100238.97;5093445;28;20267;-74
2022/05/16 08:24:51;;;;;;;;;;;;;;;26.97;14.90;100246.41;5093973;28;19926;-75
2022/05/16 08:27:17;;;;;;;;;;;;;;;26.70;14.85;100249.88;5093038;28;20015;-75
2022/05/16 08:29:42;;;;;;;;;;;;;;;26.94;14.68;100244.25;5094626;28;19924;-75
2022/05/16 08:32:07;;;;;;;;;;;;;;;26.97;14.91;100257.38;5093902;28;20341;-75
2022/05/16 08:34:33;;;;;;;;;;;;;;;27.00;14.63;100264.19;5093376;28;20007;-74
2022/05/16 08:40:03;;;;;;;;;;;;;;;26.94;14.72;100248.91;5078265;28;19974;-74
2022/05/16 08:42:50;;;;;;;;;;;;;;;27.13;14.60;100246.09;5093537;28;19923;-76
2022/05/16 08:45:21;;;;;;;;;;;;;;;27.15;14.44;100249.38;5093724;28;20047;-75
2022/05/16 08:47:52;;;;;;;;;;;;;;;26.99;14.77;100259.78;5097400;28;19923;-74
2022/05/16 08:50:37;;;;;;;;;;;;;;;27.10;14.47;100254.97;5098284;28;20042;-74
2022/05/16 08:53:05;;;;;;;;;;;;;;;27.07;14.41;100250.88;5096116;28;19924;-75
2022/05/16 08:55:47;;;;;;;;;;;;;;;27.06;14.57;100246.53;5079512;28;19916;-75
2022/05/16 08:58:27;;;;;;;;;;;;;;;26.95;14.53;100245.88;5097548;28;20041;-74
2022/05/16 09:01:02;;;;;;;;;;;;;;;27.00;14.68;100257.88;5096861;28;19962;-74
2022/05/16 09:03:46;;;;;;;;;;;;;;;27.02;14.68;100248.22;5096329;28;19923;-74
2022/05/16 09:06:13;;;;;;;;;;;;;;;27.00;14.73;100264.19;5096796;28;19924;-74
2022/05/16 09:08:38;;;;;;;;;;;;;;;27.21;14.48;100255.59;5097420;28;19969;-74
2022/05/16 09:11:06;;;;;;;;;;;;;;;27.10;14.47;100258.50;5096837;28;19916;-74
2022/05/16 09:13:49;;;;;;;;;;;;;;;27.13;14.58;100246.94;5078395;28;19966;-73
2022/05/16 09:16:20;;;;;;;;;;;;;;;27.10;14.72;100261.25;5096925;28;19965;-74
2022/05/16 09:18:50;;;;;;;;;;;;;;;27.22;14.48;100262.72;5114675;28;19919;-74
2022/05/16 09:21:20;;;;;;;;;;;;;;;27.17;14.42;100264.41;5098546;28;19968;-75
2022/05/16 09:23:54;;;;;;;;;;;;;;;27.00;14.70;100269.66;5116902;28;20029;-78
2022/05/16 09:26:22;;;;;;;;;;;;;;;27.14;14.58;100264.19;5116797;28;20014;-75
2022/05/16 09:28:49;;;;;;;;;;;;;;;27.10;14.35;100260.44;5116437;28;19916;-74
2022/05/16 09:31:14;;;;;;;;;;;;;;;26.93;14.63;100253.59;5098734;28;20222;-75
2022/05/16 09:33:45;;;;;;;;;;;;;;;27.18;14.46;100270.69;5116770;28;19916;-76
2022/05/16 09:36:12;;;;;;;;;;;;;;;26.93;14.52;100272.78;5117988;28;19916;-76
2022/05/16 09:38:43;;;;;;;;;;;;;;;27.04;14.58;100276.16;5098081;28;20381;-74
2022/05/16 09:41:09;;;;;;;;;;;;;;;27.01;14.70;100260.31;5116598;28;19915;-75
2022/05/16 09:43:37;;;;;;;;;;;;;;;27.04;14.79;100267.13;5116147;28;20010;-74
2022/05/16 09:46:10;;;;;;;;;;;;;;;27.21;14.29;100259.13;5116480;28;19916;-74
2022/05/16 09:48:36;;;;;;;;;;;;;;;27.32;14.15;100270.75;5097787;28;19926;-73
2022/05/16 09:51:06;;;;;;;;;;;;;;;27.24;14.42;100260.47;5116366;28;20018;-73
2022/05/16 09:53:32;;;;;;;;;;;;;;;27.34;14.13;100257.56;5116574;28;19976;-74
2022/05/16 09:56:00;;;;;;;;;;;;;;;27.38;14.33;100260.53;5116388;28;19916;-74
2022/05/16 09:58:25;;;;;;;;;;;;;;;27.13;14.39;100254.34;5115542;28;19920;-75
2022/05/16 10:00:58;;;;;;;;;;;;;;;27.16;14.57;100251.00;5116032;28;19926;-77
2022/05/16 10:03:29;;;;;;;;;;;;;;;27.09;14.67;100262.34;5116104;28;19916;-74
2022/05/16 10:05:55;;;;;;;;;;;;;;;27.26;14.49;100250.81;5116133;28;19916;-76
2022/05/16 10:08:25;;;;;;;;;;;;;;;27.30;14.48;100248.28;5116440;28;19943;-74
2022/05/16 10:10:50;;;;;;;;;;;;;;;27.21;14.52;100255.59;5097335;28;19965;-74
2022/05/16 10:13:16;;;;;;;;;;;;;;;27.12;14.53;100255.47;5097708;28;19920;-76
2022/05/16 10:15:41;;;;;;;;;;;;;;;27.31;14.31;100250.75;5115873;28;19939;-75
2022/05/16 10:18:07;;;;;;;;;;;;;;;27.41;14.55;100257.16;5104771;28;19916;-76
2022/05/16 10:20:38;;;;;;;;;;;;;;;27.38;14.45;100258.56;5077473;28;20316;-76
2022/05/16 10:23:05;;;;;;;;;;;;;;;27.21;14.88;100255.59;5077811;28;19963;-74
2022/05/16 10:25:32;;;;;;;;;;;;;;;27.36;14.55;100258.06;5095389;28;19939;-73
2022/05/16 10:27:57;;;;;;;;;;;;;;;27.42;14.61;100250.53;5076908;28;19930;-73
2022/05/16 10:30:24;;;;;;;;;;;;;;;27.47;14.44;100254.00;5095413;28;19916;-73
2022/05/16 10:35:37;;;;;;;;;;;;;;;27.49;14.49;100254.53;5096120;28;19943;-72
2022/05/16 10:38:03;;;;;;;;;;;;;;;27.27;14.53;100248.88;5077575;28;20255;-73
2022/05/16 10:40:33;;;;;;;;;;;;;;;27.20;14.73;100251.19;5096088;28;19916;-75
2022/05/16 10:43:04;;;;;;;;;;;;;;;27.19;14.45;100257.81;5095768;28;19916;-74
2022/05/16 10:45:29;;;;;;;;;;;;;;;27.28;14.53;100251.34;5078377;28;19917;-75
2022/05/16 10:47:59;;;;;;;;;;;;;;;27.49;14.53;100254.53;5077897;28;19924;-75
2022/05/16 10:50:37;;;;;;;;;;;;;;;27.28;14.40;100253.28;5096450;28;19993;-74
2022/05/16 10:53:10;;;;;;;;;;;;;;;27.28;14.47;100247.78;5095470;28;20011;-75
2022/05/16 10:55:44;;;;;;;;;;;;;;;27.27;14.54;100251.63;5078162;28;20016;-75
2022/05/16 10:58:15;;;;;;;;;;;;;;;27.23;14.60;100243.19;5095591;28;19923;-74
2022/05/16 11:00:59;;;;;;;;;;;;;;;27.21;14.57;100250.09;5095187;28;19916;-74
2022/05/16 11:03:45;;;;;;;;;;;;;;;27.18;14.67;100257.00;5095459;28;19916;-74
2022/05/16 11:06:10;;;;;;;;;;;;;;;27.34;14.69;100260.31;5094155;28;19923;-76
2022/05/16 11:08:38;;;;;;;;;;;;;;;27.13;14.76;100260.66;5094993;28;19920;-76
2022/05/16 11:11:06;;;;;;;;;;;;;;;26.93;14.95;100258.28;5095248;28;20039;-75
2022/05/16 11:13:39;;;;;;;;;;;;;;;27.05;15.04;100258.59;5076967;28;19938;-75
2022/05/16 11:16:11;;;;;;;;;;;;;;;27.01;14.81;100257.59;5094545;28;19916;-75
2022/05/16 11:18:48;;;;;;;;;;;;;;;27.12;14.76;100264.50;5076746;28;19916;-76
2022/05/16 11:21:29;;;;;;;;;;;;;;;27.11;14.68;100262.91;5076864;28;19928;-75
2022/05/16 11:23:54;;;;;;;;;;;;;;;27.02;15.02;100256.44;5094841;28;20431;-74
2022/05/16 11:26:24;;;;;;;;;;;;;;;26.86;15.02;100266.88;5094356;28;19924;-73
2022/05/16 11:29:17;;;;;;;;;;;;;;;27.05;14.83;100274.25;5094849;28;20012;-74
2022/05/16 11:32:03;;;;;;;;;;;;;;;26.92;15.04;100270.34;5095246;28;19985;-76
2022/05/16 11:34:31;;;;;;;;;;;;;;;27.01;14.84;100263.06;5012617;28;19917;-74
2022/05/16 11:36:59;;;;;;;;;;;;;;;26.97;14.98;100260.13;5013294;28;19940;-75
2022/05/16 11:39:34;;;;;;;;;;;;;;;26.94;14.93;100262.63;4997166;28;19918;-75
2022/05/16 11:42:17;;;;;;;;;;;;;;;26.89;15.02;100262.72;5012371;28;20064;-74
2022/05/16 11:44:58;;;;;;;;;;;;;;;27.00;14.74;100261.44;5012265;28;19918;-74
2022/05/16 11:47:26;;;;;;;;;;;;;;;26.89;14.85;100262.72;5012786;28;19997;-77
2022/05/16 11:49:52;;;;;;;;;;;;;;;26.86;14.76;100263.34;4996662;28;19948;-74
2022/05/16 11:52:39;;;;;;;;;;;;;;;26.87;14.93;100259.47;5012740;28;20292;-76
2022/05/16 12:00:31;;;;;;;;;;;;;;;26.79;15.01;100253.56;4996397;28;20024;-73
2022/05/16 12:00:39;;;;;;;;;;;;;;;26.83;14.99;100252.97;4999198;28;20426;-76
2022/05/16 12:03:07;;;;;;;;;;;;;;;26.78;14.81;100243.69;5012509;28;19918;-75
2022/05/16 12:05:39;;;;;;;;;;;;;;;26.84;14.87;100236.22;5013004;28;20380;-75
2022/05/16 12:08:40;;;;;;;;;;;;;;;26.93;15.29;100239.06;5013462;28;19918;-74
2022/05/16 12:11:05;;;;;;;;;;;;;;;26.87;15.01;100234.78;4977946;28;19921;-76
2022/05/16 12:13:33;;;;;;;;;;;;;;;26.86;15.01;100236.72;5032560;28;20005;-76
2022/05/16 12:16:16;;;;;;;;;;;;;;;26.93;14.98;100253.59;5032399;28;19917;-75
2022/05/16 12:18:41;;;;;;;;;;;;;;;26.90;14.96;100262.41;5032932;28;20020;-74
2022/05/16 12:21:09;;;;;;;;;;;;;;;26.84;15.14;100273.75;5033467;28;19956;-74
2022/05/16 12:23:49;;;;;;;;;;;;;;;26.90;15.12;100275.31;5037294;28;20455;-74
2022/05/16 12:26:26;;;;;;;;;;;;;;;26.98;15.10;100282.88;5036258;28;19922;-74
2022/05/16 12:29:07;;;;;;;;;;;;;;;26.95;15.06;100289.75;5035267;28;19917;-77
2022/05/16 12:31:44;;;;;;;;;;;;;;;27.06;14.96;100284.94;5034927;28;19964;-74
2022/05/16 12:34:09;;;;;;;;;;;;;;;27.00;15.30;100285.31;5035053;28;19939;-75
2022/05/16 12:36:34;;;;;;;;;;;;;;;26.98;14.99;100285.59;5034900;28;20371;-75
2022/05/16 12:39:06;;;;;;;;;;;;;;;27.04;14.99;100281.66;5034880;28;20024;-76
2022/05/16 12:41:57;;;;;;;;;;;;;;;27.08;15.01;100290.91;5034722;28;19924;-75
2022/05/16 12:44:44;;;;;;;;;;;;;;;26.99;15.32;100292.69;4999885;28;19918;-75
2022/05/16 12:47:21;;;;;;;;;;;;;;;26.95;15.35;100284.25;5014948;28;19924;-75
2022/05/16 12:50:02;;;;;;;;;;;;;;;27.07;15.39;100296.69;5014831;28;19917;-75
2022/05/16 12:52:36;;;;;;;;;;;;;;;27.06;15.59;100289.56;5015068;28;19925;-75
2022/05/16 12:55:09;;;;;;;;;;;;;;;27.08;15.46;100293.66;5015027;28;19926;-77
2022/05/16 12:57:37;;;;;;;;;;;;;;;27.11;15.60;100294.97;5014872;28;19992;-77
2022/05/16 13:00:04;;;;;;;;;;;;;;;27.08;15.58;100293.66;5015112;28;19918;-77
2022/05/16 13:02:45;;;;;;;;;;;;;;;27.09;15.83;100291.72;5014948;28;19929;-77
2022/05/16 13:05:11;;;;;;;;;;;;;;;27.08;15.86;100293.66;5014691;28;19921;-74
2022/05/16 13:07:39;;;;;;;;;;;;;;;27.08;15.97;100285.44;5014771;28;19924;-75
2022/05/16 13:10:34;;;;;;;;;;;;;;;27.09;15.88;100288.97;5014819;28;19918;-74